sensor_id;sensor_type;location;lat;lon;timestamp;P1;durP1;ratioP1;P2;durP2;ratioP2
15198;SDS011;7700;48.654;9.070;2022-08-21T00:00:46;84.65;;;81.78;;
15198;SDS011;7700;48.654;9.070;2022-08-21T00:03:12;98.82;;;95.47;;
15198;SDS011;7700;48.654;9.070;2022-08-21T00:05:40;98.30;;;95.00;;
15198;SDS011;7700;48.654;9.070;2022-08-21T00:08:07;94.55;;;91.40;;
15198;SDS011;7700;48.654;9.070;2022-08-21T00:10:33;107.10;;;103.57;;
15198;SDS011;7700;48.654;9.070;2022-08-21T00:13:00;106.40;;;102.90;;
15198;SDS011;7700;48.654;9.070;2022-08-21T00:15:28;112.82;;;109.13;;
15198;SDS011;7700;48.654;9.070;2022-08-21T00:17:54;118.20;;;114.35;;
15198;SDS011;7700;48.654;9.070;2022-08-21T00:20:21;105.53;;;102.07;;
15198;SDS011;7700;48.654;9.070;2022-08-21T00:22:47;115.55;;;111.47;;
15198;SDS011;7700;48.654;9.070;2022-08-21T00:25:14;114.15;;;110.47;;
15198;SDS011;7700;48.654;9.070;2022-08-21T00:27:41;118.97;;;115.05;;
15198;SDS011;7700;48.654;9.070;2022-08-21T00:30:08;111.88;;;108.13;;
15198;SDS011;7700;48.654;9.070;2022-08-21T00:32:35;112.05;;;108.35;;
15198;SDS011;7700;48.654;9.070;2022-08-21T00:35:02;113.18;;;109.47;;
15198;SDS011;7700;48.654;9.070;2022-08-21T00:37:28;110.55;;;107.00;;
15198;SDS011;7700;48.654;9.070;2022-08-21T00:39:54;118.10;;;114.38;;
15198;SDS011;7700;48.654;9.070;2022-08-21T00:42:21;112.07;;;108.18;;
15198;SDS011;7700;48.654;9.070;2022-08-21T00:44:47;112.35;;;108.75;;
15198;SDS011;7700;48.654;9.070;2022-08-21T00:47:14;91.55;;;88.40;;
15198;SDS011;7700;48.654;9.070;2022-08-21T00:49:40;80.63;;;77.88;;
15198;SDS011;7700;48.654;9.070;2022-08-21T00:52:09;86.57;;;83.60;;
15198;SDS011;7700;48.654;9.070;2022-08-21T00:54:36;80.43;;;77.53;;
15198;SDS011;7700;48.654;9.070;2022-08-21T00:57:04;69.85;;;67.50;;
15198;SDS011;7700;48.654;9.070;2022-08-21T00:59:32;77.15;;;74.45;;
15198;SDS011;7700;48.654;9.070;2022-08-21T01:02:00;63.95;;;61.75;;
15198;SDS011;7700;48.654;9.070;2022-08-21T01:04:26;55.65;;;53.72;;
15198;SDS011;7700;48.654;9.070;2022-08-21T01:06:52;50.83;;;48.83;;
15198;SDS011;7700;48.654;9.070;2022-08-21T01:09:19;30.50;;;29.20;;
15198;SDS011;7700;48.654;9.070;2022-08-21T01:11:45;26.77;;;25.73;;
15198;SDS011;7700;48.654;9.070;2022-08-21T01:14:12;25.58;;;24.50;;
15198;SDS011;7700;48.654;9.070;2022-08-21T01:16:42;28.55;;;27.30;;
15198;SDS011;7700;48.654;9.070;2022-08-21T01:19:09;27.95;;;26.85;;
15198;SDS011;7700;48.654;9.070;2022-08-21T01:21:36;19.33;;;18.38;;
15198;SDS011;7700;48.654;9.070;2022-08-21T01:24:02;24.75;;;23.77;;
15198;SDS011;7700;48.654;9.070;2022-08-21T01:26:29;24.75;;;23.85;;
15198;SDS011;7700;48.654;9.070;2022-08-21T01:28:57;19.67;;;18.95;;
15198;SDS011;7700;48.654;9.070;2022-08-21T01:31:25;16.88;;;16.23;;
15198;SDS011;7700;48.654;9.070;2022-08-21T01:33:52;22.75;;;21.77;;
15198;SDS011;7700;48.654;9.070;2022-08-21T01:36:18;22.17;;;21.23;;
15198;SDS011;7700;48.654;9.070;2022-08-21T01:38:44;10.25;;;9.82;;
15198;SDS011;7700;48.654;9.070;2022-08-21T01:41:12;8.18;;;7.78;;
15198;SDS011;7700;48.654;9.070;2022-08-21T01:43:38;13.77;;;13.18;;
15198;SDS011;7700;48.654;9.070;2022-08-21T01:46:04;7.65;;;7.22;;
15198;SDS011;7700;48.654;9.070;2022-08-21T01:48:30;16.33;;;15.60;;
15198;SDS011;7700;48.654;9.070;2022-08-21T01:50:56;20.25;;;19.38;;
15198;SDS011;7700;48.654;9.070;2022-08-21T01:53:22;20.90;;;19.90;;
15198;SDS011;7700;48.654;9.070;2022-08-21T01:55:48;18.80;;;18.00;;
15198;SDS011;7700;48.654;9.070;2022-08-21T01:58:14;12.02;;;11.35;;
15198;SDS011;7700;48.654;9.070;2022-08-21T02:00:40;10.35;;;9.63;;
15198;SDS011;7700;48.654;9.070;2022-08-21T02:03:06;7.50;;;6.95;;
15198;SDS011;7700;48.654;9.070;2022-08-21T02:05:32;5.38;;;5.00;;
15198;SDS011;7700;48.654;9.070;2022-08-21T02:07:58;4.18;;;3.88;;
15198;SDS011;7700;48.654;9.070;2022-08-21T02:10:26;3.50;;;3.20;;
15198;SDS011;7700;48.654;9.070;2022-08-21T02:12:53;3.20;;;2.90;;
15198;SDS011;7700;48.654;9.070;2022-08-21T02:15:20;3.38;;;3.08;;
15198;SDS011;7700;48.654;9.070;2022-08-21T02:17:47;4.15;;;3.20;;
15198;SDS011;7700;48.654;9.070;2022-08-21T02:20:18;3.83;;;3.10;;
15198;SDS011;7700;48.654;9.070;2022-08-21T02:22:45;3.15;;;2.85;;
15198;SDS011;7700;48.654;9.070;2022-08-21T02:25:11;3.25;;;2.67;;
15198;SDS011;7700;48.654;9.070;2022-08-21T02:27:38;2.97;;;2.67;;
15198;SDS011;7700;48.654;9.070;2022-08-21T02:30:05;3.65;;;3.00;;
15198;SDS011;7700;48.654;9.070;2022-08-21T02:32:31;3.47;;;3.17;;
15198;SDS011;7700;48.654;9.070;2022-08-21T02:34:57;4.00;;;3.10;;
15198;SDS011;7700;48.654;9.070;2022-08-21T02:37:24;2.88;;;2.67;;
15198;SDS011;7700;48.654;9.070;2022-08-21T02:39:50;3.58;;;3.28;;
15198;SDS011;7700;48.654;9.070;2022-08-21T02:42:16;5.28;;;3.30;;
15198;SDS011;7700;48.654;9.070;2022-08-21T02:44:42;2.85;;;2.65;;
15198;SDS011;7700;48.654;9.070;2022-08-21T02:47:08;3.15;;;2.83;;
15198;SDS011;7700;48.654;9.070;2022-08-21T02:49:34;4.57;;;3.10;;
15198;SDS011;7700;48.654;9.070;2022-08-21T02:52:00;5.00;;;2.85;;
15198;SDS011;7700;48.654;9.070;2022-08-21T02:54:26;3.90;;;3.17;;
15198;SDS011;7700;48.654;9.070;2022-08-21T02:56:52;3.97;;;2.90;;
15198;SDS011;7700;48.654;9.070;2022-08-21T02:59:18;2.92;;;2.60;;
15198;SDS011;7700;48.654;9.070;2022-08-21T03:01:44;2.95;;;2.72;;
15198;SDS011;7700;48.654;9.070;2022-08-21T03:04:10;2.53;;;2.30;;
15198;SDS011;7700;48.654;9.070;2022-08-21T03:06:36;2.90;;;2.60;;
15198;SDS011;7700;48.654;9.070;2022-08-21T03:09:02;2.92;;;2.65;;
15198;SDS011;7700;48.654;9.070;2022-08-21T03:11:28;4.43;;;2.88;;
15198;SDS011;7700;48.654;9.070;2022-08-21T03:13:54;4.50;;;2.90;;
15198;SDS011;7700;48.654;9.070;2022-08-21T03:16:20;4.00;;;3.00;;
15198;SDS011;7700;48.654;9.070;2022-08-21T03:18:46;2.47;;;2.28;;
15198;SDS011;7700;48.654;9.070;2022-08-21T03:21:12;4.65;;;2.92;;
15198;SDS011;7700;48.654;9.070;2022-08-21T03:23:38;3.08;;;2.88;;
15198;SDS011;7700;48.654;9.070;2022-08-21T03:26:06;3.25;;;2.80;;
15198;SDS011;7700;48.654;9.070;2022-08-21T03:28:32;4.30;;;2.70;;
15198;SDS011;7700;48.654;9.070;2022-08-21T03:30:58;3.17;;;2.70;;
15198;SDS011;7700;48.654;9.070;2022-08-21T03:33:24;5.80;;;3.00;;
15198;SDS011;7700;48.654;9.070;2022-08-21T03:35:54;3.28;;;3.00;;
15198;SDS011;7700;48.654;9.070;2022-08-21T03:38:22;3.10;;;2.80;;
15198;SDS011;7700;48.654;9.070;2022-08-21T03:40:48;3.40;;;3.00;;
15198;SDS011;7700;48.654;9.070;2022-08-21T03:43:14;2.88;;;2.60;;
15198;SDS011;7700;48.654;9.070;2022-08-21T03:45:41;4.30;;;2.60;;
15198;SDS011;7700;48.654;9.070;2022-08-21T03:48:07;5.03;;;3.08;;
15198;SDS011;7700;48.654;9.070;2022-08-21T03:50:35;3.72;;;2.90;;
15198;SDS011;7700;48.654;9.070;2022-08-21T03:53:02;3.08;;;2.78;;
15198;SDS011;7700;48.654;9.070;2022-08-21T03:55:28;4.40;;;3.00;;
15198;SDS011;7700;48.654;9.070;2022-08-21T03:57:54;4.78;;;3.28;;
15198;SDS011;7700;48.654;9.070;2022-08-21T04:00:20;4.55;;;3.20;;
15198;SDS011;7700;48.654;9.070;2022-08-21T04:02:47;4.40;;;2.87;;
15198;SDS011;7700;48.654;9.070;2022-08-21T04:05:14;4.30;;;3.05;;
15198;SDS011;7700;48.654;9.070;2022-08-21T04:07:51;3.30;;;3.03;;
15198;SDS011;7700;48.654;9.070;2022-08-21T04:10:18;3.40;;;3.10;;
15198;SDS011;7700;48.654;9.070;2022-08-21T04:12:44;4.22;;;2.90;;
15198;SDS011;7700;48.654;9.070;2022-08-21T04:15:10;4.00;;;2.80;;
15198;SDS011;7700;48.654;9.070;2022-08-21T04:17:37;3.00;;;2.80;;
15198;SDS011;7700;48.654;9.070;2022-08-21T04:20:03;3.40;;;3.10;;
15198;SDS011;7700;48.654;9.070;2022-08-21T04:22:29;3.58;;;2.65;;
15198;SDS011;7700;48.654;9.070;2022-08-21T04:24:55;3.53;;;3.23;;
15198;SDS011;7700;48.654;9.070;2022-08-21T04:27:22;3.37;;;3.07;;
15198;SDS011;7700;48.654;9.070;2022-08-21T04:29:48;3.23;;;2.73;;
15198;SDS011;7700;48.654;9.070;2022-08-21T04:32:20;4.18;;;2.65;;
15198;SDS011;7700;48.654;9.070;2022-08-21T04:34:47;3.55;;;3.00;;
15198;SDS011;7700;48.654;9.070;2022-08-21T04:37:13;3.60;;;3.30;;
15198;SDS011;7700;48.654;9.070;2022-08-21T04:39:40;3.70;;;3.03;;
15198;SDS011;7700;48.654;9.070;2022-08-21T04:42:06;5.93;;;3.20;;
15198;SDS011;7700;48.654;9.070;2022-08-21T04:44:32;3.40;;;3.20;;
15198;SDS011;7700;48.654;9.070;2022-08-21T04:46:58;3.27;;;2.90;;
15198;SDS011;7700;48.654;9.070;2022-08-21T04:49:24;3.90;;;3.00;;
15198;SDS011;7700;48.654;9.070;2022-08-21T04:51:51;3.77;;;2.90;;
15198;SDS011;7700;48.654;9.070;2022-08-21T04:54:18;3.50;;;3.07;;
15198;SDS011;7700;48.654;9.070;2022-08-21T04:56:49;3.30;;;2.95;;
15198;SDS011;7700;48.654;9.070;2022-08-21T04:59:19;3.78;;;3.30;;
15198;SDS011;7700;48.654;9.070;2022-08-21T05:01:46;3.17;;;2.87;;
15198;SDS011;7700;48.654;9.070;2022-08-21T05:04:13;3.43;;;3.13;;
15198;SDS011;7700;48.654;9.070;2022-08-21T05:06:40;3.50;;;3.13;;
15198;SDS011;7700;48.654;9.070;2022-08-21T05:09:07;4.45;;;3.10;;
15198;SDS011;7700;48.654;9.070;2022-08-21T05:11:34;3.43;;;3.07;;
15198;SDS011;7700;48.654;9.070;2022-08-21T05:14:02;4.65;;;3.10;;
15198;SDS011;7700;48.654;9.070;2022-08-21T05:16:28;4.53;;;3.43;;
15198;SDS011;7700;48.654;9.070;2022-08-21T05:18:54;3.75;;;3.22;;
15198;SDS011;7700;48.654;9.070;2022-08-21T05:21:20;4.30;;;3.20;;
15198;SDS011;7700;48.654;9.070;2022-08-21T05:23:46;3.67;;;3.00;;
15198;SDS011;7700;48.654;9.070;2022-08-21T05:26:12;2.63;;;2.42;;
15198;SDS011;7700;48.654;9.070;2022-08-21T05:28:38;4.15;;;3.10;;
15198;SDS011;7700;48.654;9.070;2022-08-21T05:31:04;3.65;;;3.20;;
15198;SDS011;7700;48.654;9.070;2022-08-21T05:33:30;5.83;;;3.47;;
15198;SDS011;7700;48.654;9.070;2022-08-21T05:35:56;3.47;;;3.15;;
15198;SDS011;7700;48.654;9.070;2022-08-21T05:38:25;7.25;;;3.80;;
15198;SDS011;7700;48.654;9.070;2022-08-21T05:40:53;4.35;;;3.45;;
15198;SDS011;7700;48.654;9.070;2022-08-21T05:43:19;3.17;;;2.87;;
15198;SDS011;7700;48.654;9.070;2022-08-21T05:45:45;3.85;;;3.47;;
15198;SDS011;7700;48.654;9.070;2022-08-21T05:48:16;3.87;;;3.57;;
15198;SDS011;7700;48.654;9.070;2022-08-21T05:50:43;8.90;;;3.60;;
15198;SDS011;7700;48.654;9.070;2022-08-21T05:53:09;5.10;;;3.40;;
15198;SDS011;7700;48.654;9.070;2022-08-21T05:55:36;3.53;;;3.20;;
15198;SDS011;7700;48.654;9.070;2022-08-21T05:58:02;3.92;;;3.63;;
15198;SDS011;7700;48.654;9.070;2022-08-21T06:00:29;4.22;;;3.83;;
15198;SDS011;7700;48.654;9.070;2022-08-21T06:02:55;3.92;;;3.30;;
15198;SDS011;7700;48.654;9.070;2022-08-21T06:05:21;4.43;;;4.03;;
15198;SDS011;7700;48.654;9.070;2022-08-21T06:07:47;5.88;;;4.15;;
15198;SDS011;7700;48.654;9.070;2022-08-21T06:10:13;4.50;;;3.80;;
15198;SDS011;7700;48.654;9.070;2022-08-21T06:12:39;4.72;;;4.15;;
15198;SDS011;7700;48.654;9.070;2022-08-21T06:15:05;4.35;;;3.53;;
15198;SDS011;7700;48.654;9.070;2022-08-21T06:17:32;3.40;;;3.08;;
15198;SDS011;7700;48.654;9.070;2022-08-21T06:19:58;4.78;;;3.67;;
15198;SDS011;7700;48.654;9.070;2022-08-21T06:22:24;3.13;;;2.78;;
15198;SDS011;7700;48.654;9.070;2022-08-21T06:24:50;4.10;;;3.15;;
15198;SDS011;7700;48.654;9.070;2022-08-21T06:27:16;4.90;;;3.08;;
15198;SDS011;7700;48.654;9.070;2022-08-21T06:29:42;5.35;;;3.08;;
15198;SDS011;7700;48.654;9.070;2022-08-21T06:32:10;3.75;;;2.90;;
15198;SDS011;7700;48.654;9.070;2022-08-21T06:34:37;2.60;;;2.38;;
15198;SDS011;7700;48.654;9.070;2022-08-21T06:37:03;5.05;;;3.60;;
15198;SDS011;7700;48.654;9.070;2022-08-21T06:39:30;3.20;;;2.83;;
15198;SDS011;7700;48.654;9.070;2022-08-21T06:41:56;4.65;;;3.17;;
15198;SDS011;7700;48.654;9.070;2022-08-21T06:44:22;4.18;;;2.92;;
15198;SDS011;7700;48.654;9.070;2022-08-21T06:46:48;5.50;;;3.13;;
15198;SDS011;7700;48.654;9.070;2022-08-21T06:49:14;3.08;;;2.42;;
15198;SDS011;7700;48.654;9.070;2022-08-21T06:51:40;3.35;;;3.00;;
15198;SDS011;7700;48.654;9.070;2022-08-21T06:54:06;3.95;;;3.20;;
15198;SDS011;7700;48.654;9.070;2022-08-21T06:56:33;4.38;;;3.00;;
15198;SDS011;7700;48.654;9.070;2022-08-21T06:59:01;4.55;;;4.00;;
15198;SDS011;7700;48.654;9.070;2022-08-21T07:01:27;5.22;;;4.82;;
15198;SDS011;7700;48.654;9.070;2022-08-21T07:03:53;5.43;;;5.03;;
15198;SDS011;7700;48.654;9.070;2022-08-21T07:06:19;26.92;;;25.70;;
15198;SDS011;7700;48.654;9.070;2022-08-21T07:08:45;62.97;;;60.65;;
15198;SDS011;7700;48.654;9.070;2022-08-21T07:11:18;91.22;;;88.05;;
15198;SDS011;7700;48.654;9.070;2022-08-21T07:13:44;98.88;;;95.50;;
15198;SDS011;7700;48.654;9.070;2022-08-21T07:16:11;98.45;;;94.95;;
15198;SDS011;7700;48.654;9.070;2022-08-21T07:18:37;119.75;;;115.75;;
15198;SDS011;7700;48.654;9.070;2022-08-21T07:21:03;92.97;;;89.65;;
15198;SDS011;7700;48.654;9.070;2022-08-21T07:23:32;82.18;;;79.28;;
15198;SDS011;7700;48.654;9.070;2022-08-21T07:25:59;63.40;;;60.78;;
15198;SDS011;7700;48.654;9.070;2022-08-21T07:28:25;70.78;;;68.07;;
15198;SDS011;7700;48.654;9.070;2022-08-21T07:30:52;53.97;;;51.88;;
15198;SDS011;7700;48.654;9.070;2022-08-21T07:33:19;41.03;;;39.33;;
15198;SDS011;7700;48.654;9.070;2022-08-21T07:35:44;30.52;;;29.30;;
15198;SDS011;7700;48.654;9.070;2022-08-21T07:38:10;33.10;;;31.60;;
15198;SDS011;7700;48.654;9.070;2022-08-21T07:40:36;15.60;;;14.75;;
15198;SDS011;7700;48.654;9.070;2022-08-21T07:43:03;10.93;;;10.32;;
15198;SDS011;7700;48.654;9.070;2022-08-21T07:45:29;8.80;;;8.10;;
15198;SDS011;7700;48.654;9.070;2022-08-21T07:47:56;8.93;;;8.20;;
15198;SDS011;7700;48.654;9.070;2022-08-21T07:50:22;5.88;;;5.38;;
15198;SDS011;7700;48.654;9.070;2022-08-21T07:52:48;4.28;;;3.92;;
15198;SDS011;7700;48.654;9.070;2022-08-21T07:55:15;4.93;;;3.92;;
15198;SDS011;7700;48.654;9.070;2022-08-21T07:57:42;5.72;;;4.32;;
15198;SDS011;7700;48.654;9.070;2022-08-21T08:00:09;3.78;;;3.40;;
15198;SDS011;7700;48.654;9.070;2022-08-21T08:02:36;4.13;;;3.65;;
15198;SDS011;7700;48.654;9.070;2022-08-21T08:05:03;4.28;;;2.83;;
15198;SDS011;7700;48.654;9.070;2022-08-21T08:07:29;6.82;;;3.35;;
15198;SDS011;7700;48.654;9.070;2022-08-21T08:09:55;3.40;;;2.92;;
15198;SDS011;7700;48.654;9.070;2022-08-21T08:12:22;3.90;;;2.95;;
15198;SDS011;7700;48.654;9.070;2022-08-21T08:14:53;6.57;;;3.03;;
15198;SDS011;7700;48.654;9.070;2022-08-21T08:17:19;4.93;;;3.00;;
15198;SDS011;7700;48.654;9.070;2022-08-21T08:19:48;4.53;;;3.03;;
15198;SDS011;7700;48.654;9.070;2022-08-21T08:22:17;4.30;;;3.22;;
15198;SDS011;7700;48.654;9.070;2022-08-21T08:24:45;6.28;;;3.30;;
15198;SDS011;7700;48.654;9.070;2022-08-21T08:27:11;4.85;;;3.15;;
15198;SDS011;7700;48.654;9.070;2022-08-21T08:29:38;4.68;;;3.17;;
15198;SDS011;7700;48.654;9.070;2022-08-21T08:32:04;3.17;;;2.85;;
15198;SDS011;7700;48.654;9.070;2022-08-21T08:34:34;4.32;;;2.70;;
15198;SDS011;7700;48.654;9.070;2022-08-21T08:37:01;3.10;;;2.80;;
15198;SDS011;7700;48.654;9.070;2022-08-21T08:39:28;6.07;;;3.08;;
15198;SDS011;7700;48.654;9.070;2022-08-21T08:42:02;4.65;;;2.88;;
15198;SDS011;7700;48.654;9.070;2022-08-21T08:44:30;4.57;;;2.90;;
15198;SDS011;7700;48.654;9.070;2022-08-21T08:46:56;4.28;;;3.00;;
15198;SDS011;7700;48.654;9.070;2022-08-21T08:51:57;5.22;;;2.65;;
15198;SDS011;7700;48.654;9.070;2022-08-21T08:54:33;5.28;;;2.60;;
15198;SDS011;7700;48.654;9.070;2022-08-21T08:57:01;4.53;;;2.63;;
15198;SDS011;7700;48.654;9.070;2022-08-21T08:59:41;5.25;;;2.83;;
15198;SDS011;7700;48.654;9.070;2022-08-21T09:02:09;4.28;;;2.70;;
15198;SDS011;7700;48.654;9.070;2022-08-21T09:04:36;3.92;;;2.80;;
15198;SDS011;7700;48.654;9.070;2022-08-21T09:09:47;6.70;;;3.15;;
15198;SDS011;7700;48.654;9.070;2022-08-21T09:17:22;5.05;;;2.80;;
15198;SDS011;7700;48.654;9.070;2022-08-21T09:19:59;4.95;;;2.72;;
15198;SDS011;7700;48.654;9.070;2022-08-21T09:22:33;3.97;;;2.33;;
15198;SDS011;7700;48.654;9.070;2022-08-21T09:25:08;5.95;;;2.72;;
15198;SDS011;7700;48.654;9.070;2022-08-21T09:27:36;3.25;;;2.60;;
15198;SDS011;7700;48.654;9.070;2022-08-21T09:30:03;25.48;;;4.35;;
15198;SDS011;7700;48.654;9.070;2022-08-21T09:32:31;4.38;;;2.88;;
15198;SDS011;7700;48.654;9.070;2022-08-21T09:37:24;5.68;;;2.80;;
15198;SDS011;7700;48.654;9.070;2022-08-21T09:39:50;3.53;;;2.40;;
15198;SDS011;7700;48.654;9.070;2022-08-21T09:42:26;5.00;;;2.72;;
15198;SDS011;7700;48.654;9.070;2022-08-21T09:45:07;6.40;;;3.08;;
15198;SDS011;7700;48.654;9.070;2022-08-21T09:47:35;3.80;;;2.65;;
15198;SDS011;7700;48.654;9.070;2022-08-21T09:50:09;5.40;;;3.20;;
15198;SDS011;7700;48.654;9.070;2022-08-21T09:52:41;4.15;;;2.60;;
15198;SDS011;7700;48.654;9.070;2022-08-21T09:55:08;5.63;;;3.20;;
15198;SDS011;7700;48.654;9.070;2022-08-21T09:58:00;2.92;;;2.45;;
15198;SDS011;7700;48.654;9.070;2022-08-21T10:03:32;3.83;;;2.70;;
15198;SDS011;7700;48.654;9.070;2022-08-21T10:05:59;5.70;;;2.92;;
15198;SDS011;7700;48.654;9.070;2022-08-21T10:08:27;3.83;;;2.88;;
15198;SDS011;7700;48.654;9.070;2022-08-21T10:11:01;5.28;;;2.63;;
15198;SDS011;7700;48.654;9.070;2022-08-21T10:13:34;4.53;;;2.45;;
15198;SDS011;7700;48.654;9.070;2022-08-21T10:18:38;5.57;;;2.78;;
15198;SDS011;7700;48.654;9.070;2022-08-21T10:21:15;2.83;;;2.50;;
15198;SDS011;7700;48.654;9.070;2022-08-21T10:28:40;4.82;;;2.90;;
15198;SDS011;7700;48.654;9.070;2022-08-21T10:31:13;5.82;;;3.10;;
15198;SDS011;7700;48.654;9.070;2022-08-21T10:36:14;3.58;;;2.45;;
15198;SDS011;7700;48.654;9.070;2022-08-21T10:38:55;6.28;;;5.78;;
15198;SDS011;7700;48.654;9.070;2022-08-21T10:46:36;7.30;;;2.83;;
15198;SDS011;7700;48.654;9.070;2022-08-21T10:49:14;4.13;;;2.88;;
15198;SDS011;7700;48.654;9.070;2022-08-21T10:56:47;54.10;;;20.38;;
15198;SDS011;7700;48.654;9.070;2022-08-21T11:01:49;48.95;;;22.30;;
15198;SDS011;7700;48.654;9.070;2022-08-21T11:04:36;19.27;;;17.92;;
15198;SDS011;7700;48.654;9.070;2022-08-21T11:07:05;39.30;;;13.63;;
15198;SDS011;7700;48.654;9.070;2022-08-21T11:09:32;39.78;;;15.75;;
15198;SDS011;7700;48.654;9.070;2022-08-21T11:12:46;43.70;;;19.67;;
15198;SDS011;7700;48.654;9.070;2022-08-21T11:17:14;3.00;;;2.15;;
15198;SDS011;7700;48.654;9.070;2022-08-21T11:19:45;43.05;;;21.13;;
15198;SDS011;7700;48.654;9.070;2022-08-21T11:22:16;29.27;;;26.58;;
15198;SDS011;7700;48.654;9.070;2022-08-21T11:24:52;48.13;;;25.42;;
15198;SDS011;7700;48.654;9.070;2022-08-21T11:27:28;28.17;;;25.92;;
15198;SDS011;7700;48.654;9.070;2022-08-21T11:29:58;50.13;;;24.40;;
15198;SDS011;7700;48.654;9.070;2022-08-21T11:37:50;85.60;;;62.15;;
15198;SDS011;7700;48.654;9.070;2022-08-21T11:45:54;5.35;;;5.05;;
15198;SDS011;7700;48.654;9.070;2022-08-21T11:50:55;52.63;;;47.63;;
15198;SDS011;7700;48.654;9.070;2022-08-21T11:53:26;50.28;;;46.45;;
15198;SDS011;7700;48.654;9.070;2022-08-21T11:55:56;71.03;;;47.58;;
15198;SDS011;7700;48.654;9.070;2022-08-21T11:58:28;59.55;;;37.50;;
15198;SDS011;7700;48.654;9.070;2022-08-21T12:01:01;76.78;;;50.38;;
15198;SDS011;7700;48.654;9.070;2022-08-21T12:03:42;48.53;;;22.38;;
15198;SDS011;7700;48.654;9.070;2022-08-21T12:06:26;57.20;;;26.48;;
15198;SDS011;7700;48.654;9.070;2022-08-21T12:08:57;52.67;;;28.10;;
15198;SDS011;7700;48.654;9.070;2022-08-21T12:11:24;41.38;;;38.45;;
15198;SDS011;7700;48.654;9.070;2022-08-21T12:21:30;44.33;;;25.15;;
15198;SDS011;7700;48.654;9.070;2022-08-21T12:29:14;68.43;;;43.60;;
15198;SDS011;7700;48.654;9.070;2022-08-21T12:31:58;62.22;;;42.00;;
15198;SDS011;7700;48.654;9.070;2022-08-21T12:34:29;54.67;;;27.45;;
15198;SDS011;7700;48.654;9.070;2022-08-21T12:36:58;53.17;;;38.45;;
15198;SDS011;7700;48.654;9.070;2022-08-21T12:39:27;40.28;;;35.33;;
15198;SDS011;7700;48.654;9.070;2022-08-21T12:42:06;39.85;;;15.38;;
15198;SDS011;7700;48.654;9.070;2022-08-21T12:44:52;33.30;;;8.23;;
15198;SDS011;7700;48.654;9.070;2022-08-21T12:47:30;65.75;;;38.20;;
15198;SDS011;7700;48.654;9.070;2022-08-21T12:52:30;37.88;;;17.05;;
15198;SDS011;7700;48.654;9.070;2022-08-21T12:54:58;47.58;;;24.15;;
15198;SDS011;7700;48.654;9.070;2022-08-21T12:57:25;42.78;;;24.98;;
15198;SDS011;7700;48.654;9.070;2022-08-21T12:59:53;59.58;;;22.30;;
15198;SDS011;7700;48.654;9.070;2022-08-21T13:02:22;38.55;;;19.92;;
15198;SDS011;7700;48.654;9.070;2022-08-21T13:04:48;43.22;;;23.05;;
15198;SDS011;7700;48.654;9.070;2022-08-21T13:07:16;6.63;;;6.15;;
15198;SDS011;7700;48.654;9.070;2022-08-21T13:09:56;42.60;;;26.52;;
15198;SDS011;7700;48.654;9.070;2022-08-21T13:12:23;20.77;;;19.48;;
15198;SDS011;7700;48.654;9.070;2022-08-21T13:14:50;36.92;;;10.85;;
15198;SDS011;7700;48.654;9.070;2022-08-21T13:17:17;16.77;;;15.50;;
15198;SDS011;7700;48.654;9.070;2022-08-21T13:19:54;49.25;;;34.42;;
15198;SDS011;7700;48.654;9.070;2022-08-21T13:22:21;46.63;;;21.10;;
15198;SDS011;7700;48.654;9.070;2022-08-21T13:24:47;53.88;;;35.03;;
15198;SDS011;7700;48.654;9.070;2022-08-21T13:27:18;37.58;;;17.52;;
15198;SDS011;7700;48.654;9.070;2022-08-21T13:29:45;38.58;;;15.40;;
15198;SDS011;7700;48.654;9.070;2022-08-21T13:32:17;44.40;;;25.10;;
15198;SDS011;7700;48.654;9.070;2022-08-21T13:34:44;80.53;;;48.13;;
15198;SDS011;7700;48.654;9.070;2022-08-21T13:37:10;60.20;;;37.15;;
15198;SDS011;7700;48.654;9.070;2022-08-21T13:39:37;42.38;;;19.55;;
15198;SDS011;7700;48.654;9.070;2022-08-21T13:42:03;32.38;;;29.98;;
15198;SDS011;7700;48.654;9.070;2022-08-21T13:44:33;28.55;;;26.95;;
15198;SDS011;7700;48.654;9.070;2022-08-21T13:47:00;26.23;;;24.63;;
15198;SDS011;7700;48.654;9.070;2022-08-21T13:49:29;72.53;;;46.00;;
15198;SDS011;7700;48.654;9.070;2022-08-21T13:51:55;24.65;;;22.80;;
15198;SDS011;7700;48.654;9.070;2022-08-21T13:54:33;69.13;;;34.63;;
15198;SDS011;7700;48.654;9.070;2022-08-21T13:56:59;53.70;;;34.75;;
15198;SDS011;7700;48.654;9.070;2022-08-21T14:01:56;45.17;;;40.60;;
15198;SDS011;7700;48.654;9.070;2022-08-21T14:04:25;49.03;;;21.70;;
15198;SDS011;7700;48.654;9.070;2022-08-21T14:06:52;74.03;;;41.28;;
15198;SDS011;7700;48.654;9.070;2022-08-21T14:09:24;54.80;;;33.33;;
15198;SDS011;7700;48.654;9.070;2022-08-21T14:11:52;59.10;;;33.75;;
15198;SDS011;7700;48.654;9.070;2022-08-21T14:14:23;66.80;;;35.65;;
15198;SDS011;7700;48.654;9.070;2022-08-21T14:16:54;53.67;;;29.77;;
15198;SDS011;7700;48.654;9.070;2022-08-21T14:19:24;53.70;;;23.38;;
15198;SDS011;7700;48.654;9.070;2022-08-21T14:21:51;52.97;;;28.02;;
15198;SDS011;7700;48.654;9.070;2022-08-21T14:26:52;68.80;;;40.35;;
15198;SDS011;7700;48.654;9.070;2022-08-21T14:29:19;37.67;;;34.08;;
15198;SDS011;7700;48.654;9.070;2022-08-21T14:31:50;37.80;;;34.80;;
15198;SDS011;7700;48.654;9.070;2022-08-21T14:34:16;51.67;;;24.15;;
15198;SDS011;7700;48.654;9.070;2022-08-21T14:36:42;53.42;;;29.33;;
15198;SDS011;7700;48.654;9.070;2022-08-21T14:39:09;54.42;;;21.05;;
15198;SDS011;7700;48.654;9.070;2022-08-21T14:41:35;53.40;;;19.95;;
15198;SDS011;7700;48.654;9.070;2022-08-21T14:44:02;68.72;;;52.88;;
15198;SDS011;7700;48.654;9.070;2022-08-21T14:46:29;78.53;;;50.10;;
15198;SDS011;7700;48.654;9.070;2022-08-21T14:48:57;51.83;;;26.38;;
15198;SDS011;7700;48.654;9.070;2022-08-21T14:51:23;50.60;;;32.55;;
15198;SDS011;7700;48.654;9.070;2022-08-21T14:53:49;22.52;;;20.60;;
15198;SDS011;7700;48.654;9.070;2022-08-21T14:56:15;54.45;;;28.00;;
15198;SDS011;7700;48.654;9.070;2022-08-21T14:58:43;55.42;;;38.60;;
15198;SDS011;7700;48.654;9.070;2022-08-21T15:01:10;48.70;;;35.42;;
15198;SDS011;7700;48.654;9.070;2022-08-21T15:03:37;38.55;;;15.07;;
15198;SDS011;7700;48.654;9.070;2022-08-21T15:06:04;43.85;;;19.48;;
15198;SDS011;7700;48.654;9.070;2022-08-21T15:08:30;48.67;;;26.52;;
15198;SDS011;7700;48.654;9.070;2022-08-21T15:10:57;61.08;;;35.75;;
15198;SDS011;7700;48.654;9.070;2022-08-21T15:13:23;44.10;;;16.27;;
15198;SDS011;7700;48.654;9.070;2022-08-21T15:15:50;33.50;;;13.07;;
15198;SDS011;7700;48.654;9.070;2022-08-21T15:18:18;42.92;;;23.55;;
15198;SDS011;7700;48.654;9.070;2022-08-21T15:20:44;45.45;;;25.42;;
15198;SDS011;7700;48.654;9.070;2022-08-21T15:23:10;38.08;;;22.80;;
15198;SDS011;7700;48.654;9.070;2022-08-21T15:25:36;52.08;;;26.73;;
15198;SDS011;7700;48.654;9.070;2022-08-21T15:28:05;49.35;;;31.08;;
15198;SDS011;7700;48.654;9.070;2022-08-21T15:30:31;42.80;;;16.90;;
15198;SDS011;7700;48.654;9.070;2022-08-21T15:32:57;51.80;;;29.42;;
15198;SDS011;7700;48.654;9.070;2022-08-21T15:35:23;48.30;;;24.67;;
15198;SDS011;7700;48.654;9.070;2022-08-21T15:37:49;40.13;;;18.75;;
15198;SDS011;7700;48.654;9.070;2022-08-21T15:40:15;37.83;;;16.80;;
15198;SDS011;7700;48.654;9.070;2022-08-21T15:42:42;53.50;;;32.13;;
15198;SDS011;7700;48.654;9.070;2022-08-21T15:45:09;36.58;;;13.15;;
15198;SDS011;7700;48.654;9.070;2022-08-21T15:47:36;47.35;;;26.98;;
15198;SDS011;7700;48.654;9.070;2022-08-21T15:50:03;42.33;;;21.25;;
15198;SDS011;7700;48.654;9.070;2022-08-21T15:52:30;46.10;;;21.05;;
15198;SDS011;7700;48.654;9.070;2022-08-21T15:54:56;41.38;;;29.23;;
15198;SDS011;7700;48.654;9.070;2022-08-21T15:57:23;37.30;;;17.17;;
15198;SDS011;7700;48.654;9.070;2022-08-21T15:59:57;44.28;;;16.08;;
15198;SDS011;7700;48.654;9.070;2022-08-21T16:02:29;49.67;;;30.50;;
15198;SDS011;7700;48.654;9.070;2022-08-21T16:04:55;31.80;;;15.10;;
15198;SDS011;7700;48.654;9.070;2022-08-21T16:07:23;42.47;;;20.40;;